Time;durP1;ratioP1;P1;durP2;ratioP2;P2;SDS_P1;SDS_P2;PMS_P1;PMS_P2;Temp;Humidity;BMP_temperature;BMP_pressure;BME280_temperature;BME280_humidity;BME280_pressure;Samples;Min_cycle;Max_cycle;Signal;HPM_P1;HPM_P2
2021/12/19 00:00:40;;;;;;;41.75;22.35;;;;;;;;;;4998870;28;20071;-48
2021/12/19 00:11:13;;;;;;;52.65;26.13;;;;;;;;;;4989591;28;20148;-48
2021/12/19 00:13:40;;;;;;;38.15;19.95;;;;;;;;;;4996530;28;20108;-49
2021/12/19 00:16:07;;;;;;;37.85;19.88;;;;;;;;;;4998130;28;20203;-46
2021/12/19 00:18:33;;;;;;;38.97;19.10;;;;;;;;;;4995261;28;20052;-48
2021/12/19 00:21:00;;;;;;;38.28;17.30;;;;;;;;;;4998289;28;20053;-45
2021/12/19 00:23:27;;;;;;;36.55;18.58;;;;;;;;;;5020752;28;20029;-48
2021/12/19 00:25:53;;;;;;;31.80;16.55;;;;;;;;;;5029695;28;20032;-49
2021/12/19 00:28:19;;;;;;;26.45;16.05;;;;;;;;;;5029501;28;20025;-48
2021/12/19 00:30:46;;;;;;;26.63;14.77;;;;;;;;;;5029895;28;20422;-50
2021/12/19 00:33:12;;;;;;;34.55;16.65;;;;;;;;;;5029713;28;20024;-49
2021/12/19 00:35:38;;;;;;;31.23;15.77;;;;;;;;;;5029187;28;20090;-50
2021/12/19 00:38:05;;;;;;;34.17;17.27;;;;;;;;;;5029125;28;20042;-48
2021/12/19 00:40:32;;;;;;;31.20;16.35;;;;;;;;;;5028799;28;20141;-52
2021/12/19 00:43:04;;;;;;;25.67;14.70;;;;;;;;;;5026675;28;20430;-50
2021/12/19 00:45:33;;;;;;;29.88;15.18;;;;;;;;;;5029447;28;20473;-49
2021/12/19 00:48:01;;;;;;;25.15;14.63;;;;;;;;;;5029465;28;20087;-50
2021/12/19 00:50:28;;;;;;;31.25;16.23;;;;;;;;;;5028731;28;20118;-49
2021/12/19 00:52:54;;;;;;;35.15;17.05;;;;;;;;;;5026885;28;20080;-48
2021/12/19 00:55:21;;;;;;;26.42;15.10;;;;;;;;;;5029408;28;20085;-50
2021/12/19 00:57:48;;;;;;;29.98;16.67;;;;;;;;;;5030237;28;20464;-48
2021/12/19 01:00:16;;;;;;;24.77;14.60;;;;;;;;;;5033415;28;20094;-50
2021/12/19 01:02:42;;;;;;;24.30;12.55;;;;;;;;;;5033276;28;20071;-51
2021/12/19 01:05:08;;;;;;;24.25;13.70;;;;;;;;;;5033162;28;20474;-48
2021/12/19 01:07:34;;;;;;;24.00;13.20;;;;;;;;;;5032955;28;20542;-51
2021/12/19 01:10:00;;;;;;;24.33;14.02;;;;;;;;;;5033197;28;20108;-49
2021/12/19 01:12:27;;;;;;;27.08;14.32;;;;;;;;;;5032898;28;20496;-48
2021/12/19 01:14:55;;;;;;;26.02;13.98;;;;;;;;;;5030255;28;20034;-47
2021/12/19 01:17:21;;;;;;;25.90;12.68;;;;;;;;;;5033030;28;20045;-49
2021/12/19 01:19:47;;;;;;;26.77;13.90;;;;;;;;;;5032985;28;20064;-51
2021/12/19 01:22:16;;;;;;;23.23;13.50;;;;;;;;;;5033096;28;20025;-47
2021/12/19 01:24:42;;;;;;;25.85;14.18;;;;;;;;;;5032914;28;20049;-50
2021/12/19 01:27:09;;;;;;;23.60;13.20;;;;;;;;;;5056601;28;20107;-47
2021/12/19 01:29:35;;;;;;;28.92;13.85;;;;;;;;;;5056322;28;20470;-49
2021/12/19 01:32:01;;;;;;;26.70;14.23;;;;;;;;;;5056256;28;20040;-48
2021/12/19 01:34:27;;;;;;;29.98;15.48;;;;;;;;;;5056173;28;20028;-48
2021/12/19 01:36:53;;;;;;;25.75;13.90;;;;;;;;;;5056128;28;20499;-50
2021/12/19 01:39:19;;;;;;;25.52;13.98;;;;;;;;;;5056169;28;20028;-49
2021/12/19 01:41:47;;;;;;;25.20;13.77;;;;;;;;;;5056090;28;20055;-48
2021/12/19 01:44:13;;;;;;;27.50;14.45;;;;;;;;;;5056012;28;20078;-48
2021/12/19 01:46:40;;;;;;;34.25;17.55;;;;;;;;;;5055974;28;20040;-47
2021/12/19 01:49:06;;;;;;;27.15;14.40;;;;;;;;;;5055853;28;20025;-48
2021/12/19 01:51:35;;;;;;;55.75;30.95;;;;;;;;;;5055798;28;20040;-47
2021/12/19 01:54:01;;;;;;;27.67;14.38;;;;;;;;;;5055773;28;20051;-49
2021/12/19 01:56:28;;;;;;;24.13;13.13;;;;;;;;;;5055695;28;20120;-47
2021/12/19 01:58:54;;;;;;;30.02;15.38;;;;;;;;;;5055869;28;20021;-47
2021/12/19 02:01:20;;;;;;;27.20;13.93;;;;;;;;;;5055796;28;20487;-48
2021/12/19 02:03:46;;;;;;;26.98;13.73;;;;;;;;;;5055863;28;20029;-48
2021/12/19 02:06:12;;;;;;;21.92;13.20;;;;;;;;;;5055776;28;20547;-47
2021/12/19 02:08:38;;;;;;;25.40;14.02;;;;;;;;;;5055639;28;20033;-47
2021/12/19 02:11:04;;;;;;;27.75;16.00;;;;;;;;;;5054887;28;20021;-47
2021/12/19 02:13:30;;;;;;;25.05;14.90;;;;;;;;;;5055419;28;20072;-48
2021/12/19 02:15:56;;;;;;;24.73;13.27;;;;;;;;;;5055204;28;20107;-50
2021/12/19 02:18:23;;;;;;;25.65;13.35;;;;;;;;;;5055690;28;20039;-47
2021/12/19 02:20:53;;;;;;;24.45;14.13;;;;;;;;;;5055374;28;20017;-47
2021/12/19 02:23:21;;;;;;;22.50;12.98;;;;;;;;;;5055535;28;20029;-48
2021/12/19 02:25:47;;;;;;;24.35;12.82;;;;;;;;;;5055353;28;20388;-47
2021/12/19 02:28:14;;;;;;;23.38;13.43;;;;;;;;;;5055317;28;20528;-47
2021/12/19 02:30:40;;;;;;;20.83;13.15;;;;;;;;;;5055458;28;20017;-47
2021/12/19 02:33:12;;;;;;;23.05;13.77;;;;;;;;;;5055272;28;20024;-47
2021/12/19 02:35:40;;;;;;;23.17;13.93;;;;;;;;;;5054031;28;20396;-51
2021/12/19 02:38:33;;;;;;;24.20;13.48;;;;;;;;;;5055066;28;20037;-48
2021/12/19 02:49:04;;;;;;;26.05;13.60;;;;;;;;;;5055087;28;20492;-49
2021/12/19 02:51:34;;;;;;;23.98;14.07;;;;;;;;;;5054904;28;20033;-48
2021/12/19 02:54:00;;;;;;;26.85;15.13;;;;;;;;;;5055058;28;20491;-48
2021/12/19 02:56:28;;;;;;;22.60;14.15;;;;;;;;;;5054643;28;20033;-48
2021/12/19 02:58:54;;;;;;;25.50;13.75;;;;;;;;;;5054714;28;20032;-47
2021/12/19 03:01:21;;;;;;;31.27;16.92;;;;;;;;;;5053244;28;20393;-47
2021/12/19 03:03:47;;;;;;;21.42;12.80;;;;;;;;;;5054589;28;20029;-47
2021/12/19 03:06:13;;;;;;;23.65;13.52;;;;;;;;;;5054520;28;20071;-47
2021/12/19 03:08:46;;;;;;;25.48;12.98;;;;;;;;;;5054588;28;20029;-47
2021/12/19 03:17:57;;;;;;;26.45;13.88;;;;;;;;;;5054309;28;20384;-48
2021/12/19 03:19:32;;;;;;;24.95;12.65;;;;;;;;;;5032365;28;20039;-48
2021/12/19 03:21:58;;;;;;;23.75;13.32;;;;;;;;;;5031212;28;20025;-48
2021/12/19 03:24:24;;;;;;;28.52;15.45;;;;;;;;;;5032438;28;20037;-48
2021/12/19 03:26:50;;;;;;;24.17;13.90;;;;;;;;;;5032128;28;20382;-48
2021/12/19 03:29:16;;;;;;;22.58;12.85;;;;;;;;;;5015594;28;20033;-48
2021/12/19 03:31:43;;;;;;;24.45;14.13;;;;;;;;;;5032229;28;20032;-48
2021/12/19 03:34:09;;;;;;;23.70;12.73;;;;;;;;;;5032215;28;20107;-47
2021/12/19 03:36:35;;;;;;;21.75;12.85;;;;;;;;;;5031908;28;20124;-47
2021/12/19 03:39:13;;;;;;;32.20;19.25;;;;;;;;;;5032096;28;20465;-47
2021/12/19 03:41:40;;;;;;;21.10;12.60;;;;;;;;;;5032005;28;20577;-48
2021/12/19 03:44:06;;;;;;;21.77;13.32;;;;;;;;;;5031959;28;20067;-49
2021/12/19 03:46:32;;;;;;;23.15;13.20;;;;;;;;;;5031802;28;20120;-48
2021/12/19 03:48:58;;;;;;;23.77;14.27;;;;;;;;;;5015368;28;20457;-48
2021/12/19 03:51:24;;;;;;;25.70;13.50;;;;;;;;;;5031651;28;20021;-48
2021/12/19 03:53:50;;;;;;;21.50;13.27;;;;;;;;;;5031879;28;20422;-50
2021/12/19 03:56:17;;;;;;;23.25;14.25;;;;;;;;;;5053386;28;20044;-48
2021/12/19 03:58:43;;;;;;;31.35;15.82;;;;;;;;;;5053437;28;20032;-48
2021/12/19 04:01:10;;;;;;;27.23;14.00;;;;;;;;;;5053620;28;20469;-47
2021/12/19 04:03:36;;;;;;;20.33;13.43;;;;;;;;;;5053629;28;20480;-49
2021/12/19 04:06:03;;;;;;;29.05;15.38;;;;;;;;;;5053330;28;20040;-48
2021/12/19 04:08:29;;;;;;;26.42;16.02;;;;;;;;;;5053795;28;20036;-47
2021/12/19 04:10:57;;;;;;;24.90;14.00;;;;;;;;;;5053311;28;20070;-49
2021/12/19 04:13:24;;;;;;;26.83;14.73;;;;;;;;;;5053239;28;20033;-49
2021/12/19 04:15:50;;;;;;;27.50;14.52;;;;;;;;;;5053155;28;20033;-47
2021/12/19 04:18:17;;;;;;;31.35;15.63;;;;;;;;;;5053345;28;20039;-48
2021/12/19 04:20:43;;;;;;;33.00;16.67;;;;;;;;;;5053176;28;20017;-48
2021/12/19 04:23:09;;;;;;;26.58;14.80;;;;;;;;;;5053553;28;20031;-48
2021/12/19 04:25:35;;;;;;;24.70;13.63;;;;;;;;;;5053392;28;20021;-50
2021/12/19 04:28:02;;;;;;;21.48;12.65;;;;;;;;;;5053425;28;20021;-48
2021/12/19 04:30:28;;;;;;;29.65;15.77;;;;;;;;;;5053157;28;20108;-49
2021/12/19 04:32:59;;;;;;;24.75;14.20;;;;;;;;;;5054425;28;20029;-48
2021/12/19 04:35:30;;;;;;;24.70;14.55;;;;;;;;;;5057265;28;20567;-49
2021/12/19 04:40:33;;;;;;;25.45;14.25;;;;;;;;;;5057327;28;20021;-48
2021/12/19 04:51:41;;;;;;;29.33;16.92;;;;;;;;;;5057233;28;20114;-46
2021/12/19 04:59:35;;;;;;;23.90;13.55;;;;;;;;;;5057078;28;20507;-46
2021/12/19 05:02:28;;;;;;;22.98;13.38;;;;;;;;;;5056838;28;20032;-46
2021/12/19 05:15:31;;;;;;;24.63;15.18;;;;;;;;;;5056991;28;20128;-46
2021/12/19 05:18:02;;;;;;;20.77;13.75;;;;;;;;;;5056490;28;20540;-47
2021/12/19 05:20:29;;;;;;;26.45;14.57;;;;;;;;;;5056389;28;20028;-46
2021/12/19 05:23:03;;;;;;;23.98;14.10;;;;;;;;;;5056522;28;20021;-46
2021/12/19 05:25:29;;;;;;;27.17;17.52;;;;;;;;;;5056649;28;20032;-49
2021/12/19 05:27:55;;;;;;;30.25;16.02;;;;;;;;;;5056330;28;20064;-48
2021/12/19 05:30:22;;;;;;;24.73;15.00;;;;;;;;;;5056325;28;20099;-46
2021/12/19 05:32:50;;;;;;;28.48;16.73;;;;;;;;;;5056286;28;20017;-46
2021/12/19 05:35:20;;;;;;;27.08;14.10;;;;;;;;;;5056713;28;20029;-47
2021/12/19 05:46:00;;;;;;;23.80;15.80;;;;;;;;;;5055435;28;20128;-48
2021/12/19 05:48:26;;;;;;;27.60;15.88;;;;;;;;;;5056264;28;20017;-48
2021/12/19 05:50:52;;;;;;;27.17;15.80;;;;;;;;;;5055987;28;20410;-48
2021/12/19 05:53:18;;;;;;;48.55;25.02;;;;;;;;;;5056167;28;20029;-48
2021/12/19 05:55:44;;;;;;;54.90;29.40;;;;;;;;;;5055936;28;20477;-48
2021/12/19 05:58:10;;;;;;;48.15;26.15;;;;;;;;;;5055696;28;20037;-48
2021/12/19 06:00:37;;;;;;;44.17;25.15;;;;;;;;;;5055680;28;20052;-48
2021/12/19 06:03:03;;;;;;;44.38;25.15;;;;;;;;;;5055969;28;20103;-48
2021/12/19 06:05:29;;;;;;;57.83;33.97;;;;;;;;;;5055602;28;20108;-49
2021/12/19 06:07:56;;;;;;;66.25;42.70;;;;;;;;;;5055532;28;20021;-50
2021/12/19 06:10:22;;;;;;;47.28;30.35;;;;;;;;;;5055913;28;20021;-49
2021/12/19 06:12:49;;;;;;;35.05;21.63;;;;;;;;;;5055756;28;20044;-48
2021/12/19 06:15:15;;;;;;;29.30;18.05;;;;;;;;;;5055479;28;20057;-49
2021/12/19 06:17:45;;;;;;;30.33;18.05;;;;;;;;;;5055324;28;20140;-48
2021/12/19 06:20:11;;;;;;;32.85;20.63;;;;;;;;;;5055624;28;20047;-48
2021/12/19 06:22:38;;;;;;;37.47;22.50;;;;;;;;;;5055319;28;20025;-49
2021/12/19 06:25:08;;;;;;;36.08;19.00;;;;;;;;;;5055435;28;20092;-49
2021/12/19 06:27:34;;;;;;;31.27;17.42;;;;;;;;;;5055487;28;20372;-49
2021/12/19 06:30:00;;;;;;;31.90;18.33;;;;;;;;;;5055469;28;20362;-48
2021/12/19 06:32:26;;;;;;;37.97;20.08;;;;;;;;;;5055475;28;20032;-49
2021/12/19 06:34:52;;;;;;;38.30;22.60;;;;;;;;;;5055261;28;20017;-48
2021/12/19 06:37:18;;;;;;;38.83;21.00;;;;;;;;;;5055045;28;20437;-49
2021/12/19 06:39:44;;;;;;;51.53;23.92;;;;;;;;;;5055198;28;20017;-48
2021/12/19 06:42:11;;;;;;;47.97;24.38;;;;;;;;;;5054993;28;20120;-48
2021/12/19 06:44:37;;;;;;;42.90;21.45;;;;;;;;;;5054863;28;20465;-48
2021/12/19 06:47:04;;;;;;;46.45;23.00;;;;;;;;;;5053795;28;20370;-49
2021/12/19 06:49:30;;;;;;;67.60;30.30;;;;;;;;;;5054944;28;20032;-48
2021/12/19 06:51:56;;;;;;;50.58;27.17;;;;;;;;;;5054796;28;20025;-47
2021/12/19 06:54:23;;;;;;;43.03;24.85;;;;;;;;;;5054856;28;20057;-48
2021/12/19 06:56:49;;;;;;;33.58;19.33;;;;;;;;;;5054438;28;20033;-47
2021/12/19 06:59:15;;;;;;;36.30;21.70;;;;;;;;;;5054810;28;20436;-48
2021/12/19 07:01:41;;;;;;;44.33;22.58;;;;;;;;;;5054893;28;20021;-48
2021/12/19 07:04:08;;;;;;;44.08;24.50;;;;;;;;;;5054726;28;20087;-49
2021/12/19 07:06:35;;;;;;;48.15;26.17;;;;;;;;;;5054761;28;20461;-48
2021/12/19 07:09:01;;;;;;;53.08;28.00;;;;;;;;;;5054662;28;20059;-47
2021/12/19 07:11:27;;;;;;;51.38;26.80;;;;;;;;;;5054508;28;20075;-47
2021/12/19 07:13:53;;;;;;;51.25;25.58;;;;;;;;;;5054268;28;20397;-48
2021/12/19 07:16:19;;;;;;;36.97;21.83;;;;;;;;;;5054209;28;20071;-47
2021/12/19 07:18:46;;;;;;;46.15;22.58;;;;;;;;;;5054443;28;20029;-47
2021/12/19 07:21:14;;;;;;;48.53;22.38;;;;;;;;;;5054410;28;20108;-48
2021/12/19 07:23:41;;;;;;;44.72;21.63;;;;;;;;;;5054863;28;20053;-48
2021/12/19 07:26:07;;;;;;;51.67;23.38;;;;;;;;;;5054289;28;20027;-48
2021/12/19 07:28:33;;;;;;;53.92;26.65;;;;;;;;;;5054181;28;20028;-47
2021/12/19 07:30:59;;;;;;;44.95;24.52;;;;;;;;;;5054360;28;20036;-48
2021/12/19 07:33:25;;;;;;;36.03;19.67;;;;;;;;;;5054200;28;20025;-48
2021/12/19 07:35:52;;;;;;;35.67;19.13;;;;;;;;;;5054135;28;20536;-48
2021/12/19 07:38:27;;;;;;;30.48;17.70;;;;;;;;;;5053899;28;20041;-49
2021/12/19 07:40:54;;;;;;;33.92;17.95;;;;;;;;;;5053903;28;20017;-53
2021/12/19 07:43:21;;;;;;;35.95;19.90;;;;;;;;;;5053835;28;20044;-48
2021/12/19 07:45:47;;;;;;;34.03;18.45;;;;;;;;;;5054049;28;20025;-48
2021/12/19 07:48:13;;;;;;;33.97;17.17;;;;;;;;;;5053907;28;20087;-48
2021/12/19 07:50:40;;;;;;;30.13;18.75;;;;;;;;;;5053836;28;20461;-48
2021/12/19 07:53:08;;;;;;;36.13;18.63;;;;;;;;;;5053597;28;20385;-49
2021/12/19 07:55:34;;;;;;;38.13;18.63;;;;;;;;;;5053643;28;20389;-50
2021/12/19 07:58:00;;;;;;;29.67;17.67;;;;;;;;;;5053568;28;20710;-49
2021/12/19 08:00:27;;;;;;;30.48;18.00;;;;;;;;;;5053822;28;20395;-51
2021/12/19 08:02:53;;;;;;;34.78;19.20;;;;;;;;;;5053480;28;20033;-50
2021/12/19 08:05:21;;;;;;;41.95;19.65;;;;;;;;;;5053661;28;20155;-49
2021/12/19 08:07:49;;;;;;;46.97;25.15;;;;;;;;;;5052885;28;20428;-48
2021/12/19 08:12:45;;;;;;;43.10;21.80;;;;;;;;;;5053410;28;20098;-48
2021/12/19 08:15:12;;;;;;;43.13;22.95;;;;;;;;;;5053230;28;20079;-48
2021/12/19 08:17:38;;;;;;;35.92;18.98;;;;;;;;;;5053238;28;20185;-46
2021/12/19 08:20:13;;;;;;;35.63;20.65;;;;;;;;;;5053416;28;20174;-49
2021/12/19 08:22:40;;;;;;;41.08;21.27;;;;;;;;;;5053259;28;20539;-47
2021/12/19 08:25:06;;;;;;;39.25;21.80;;;;;;;;;;5053204;28;20111;-46
2021/12/19 08:27:34;;;;;;;42.88;22.67;;;;;;;;;;5053472;28;20036;-46
2021/12/19 08:30:05;;;;;;;36.88;20.48;;;;;;;;;;5053155;28;20070;-48
2021/12/19 08:32:31;;;;;;;57.85;28.05;;;;;;;;;;5053226;28;20029;-48
2021/12/19 08:34:57;;;;;;;49.45;24.98;;;;;;;;;;5053195;28;20350;-47
2021/12/19 08:37:23;;;;;;;42.75;21.55;;;;;;;;;;5053055;28;20033;-48
2021/12/19 08:39:49;;;;;;;49.08;25.00;;;;;;;;;;5053178;28;20366;-49
2021/12/19 08:42:16;;;;;;;39.22;21.88;;;;;;;;;;5053289;28;20025;-49
2021/12/19 08:44:42;;;;;;;46.15;26.88;;;;;;;;;;5040605;28;20068;-48
2021/12/19 08:47:08;;;;;;;47.60;24.20;;;;;;;;;;5032508;28;20109;-48
2021/12/19 08:49:34;;;;;;;46.22;24.67;;;;;;;;;;5032571;28;20105;-48
2021/12/19 08:52:01;;;;;;;52.80;28.00;;;;;;;;;;5032582;28;20013;-48
2021/12/19 08:54:27;;;;;;;56.70;27.10;;;;;;;;;;5032446;28;20025;-48
2021/12/19 08:56:53;;;;;;;45.95;24.92;;;;;;;;;;5029821;28;20034;-48
2021/12/19 08:59:19;;;;;;;45.20;25.05;;;;;;;;;;5032559;28;20021;-50
2021/12/19 09:01:47;;;;;;;37.85;22.85;;;;;;;;;;5032437;28;20052;-49
2021/12/19 09:04:13;;;;;;;36.10;22.77;;;;;;;;;;5032414;28;20025;-48
2021/12/19 09:06:39;;;;;;;42.53;24.60;;;;;;;;;;5032404;28;20028;-50
2021/12/19 09:09:06;;;;;;;66.63;38.50;;;;;;;;;;5025561;28;20508;-46
2021/12/19 09:11:33;;;;;;;48.38;30.45;;;;;;;;;;5032685;28;20025;-51
2021/12/19 09:13:59;;;;;;;38.70;23.88;;;;;;;;;;5032378;28;20040;-51
2021/12/19 09:16:30;;;;;;;28.83;19.23;;;;;;;;;;5032221;28;20052;-48
2021/12/19 09:18:57;;;;;;;33.65;23.35;;;;;;;;;;5033519;28;20028;-49
2021/12/19 09:21:23;;;;;;;28.35;20.42;;;;;;;;;;5036523;28;20025;-55
2021/12/19 09:23:49;;;;;;;40.28;23.08;;;;;;;;;;5036461;28;20029;-48
2021/12/19 09:26:15;;;;;;;35.13;23.58;;;;;;;;;;5035991;28;20029;-50
2021/12/19 09:28:41;;;;;;;30.40;19.55;;;;;;;;;;5035692;28;20482;-51
2021/12/19 09:31:07;;;;;;;31.17;19.90;;;;;;;;;;5035854;28;20036;-50
2021/12/19 09:33:33;;;;;;;32.70;20.63;;;;;;;;;;5033233;28;20537;-49
2021/12/19 09:35:59;;;;;;;47.00;24.95;;;;;;;;;;5035687;28;20112;-49
2021/12/19 09:38:26;;;;;;;39.70;21.33;;;;;;;;;;5035416;28;20068;-50
2021/12/19 09:40:59;;;;;;;42.03;24.25;;;;;;;;;;5035509;28;20028;-48
2021/12/19 09:43:41;;;;;;;54.38;30.58;;;;;;;;;;5035436;28;20029;-49
2021/12/19 09:46:19;;;;;;;52.22;28.02;;;;;;;;;;5034909;28;20034;-49
2021/12/19 09:48:49;;;;;;;51.40;27.48;;;;;;;;;;5035399;28;20072;-47
2021/12/19 09:51:16;;;;;;;49.28;28.60;;;;;;;;;;5035327;28;20470;-49
2021/12/19 09:53:43;;;;;;;53.92;29.92;;;;;;;;;;5035247;28;20026;-48
2021/12/19 09:56:09;;;;;;;44.97;27.25;;;;;;;;;;5035348;28;20030;-49
2021/12/19 09:58:35;;;;;;;49.42;26.50;;;;;;;;;;5035461;28;20132;-48
2021/12/19 10:01:03;;;;;;;39.75;24.75;;;;;;;;;;5035282;28;20017;-49
2021/12/19 10:03:30;;;;;;;45.00;25.67;;;;;;;;;;5035267;28;20036;-47
2021/12/19 10:06:31;;;;;;;45.35;26.63;;;;;;;;;;5028356;28;20474;-48
2021/12/19 10:09:18;;;;;;;35.88;22.08;;;;;;;;;;4974205;28;20101;-50
2021/12/19 10:11:58;;;;;;;38.97;23.90;;;;;;;;;;4965244;28;20549;-50
2021/12/19 10:14:31;;;;;;;56.17;33.20;;;;;;;;;;4973147;28;20037;-48
2021/12/19 10:16:59;;;;;;;46.92;27.13;;;;;;;;;;4974351;28;20079;-48
2021/12/19 10:19:43;;;;;;;57.35;31.67;;;;;;;;;;4974103;28;20502;-47
2021/12/19 10:22:24;;;;;;;49.17;25.95;;;;;;;;;;4974458;28;20526;-48
2021/12/19 10:24:51;;;;;;;45.80;24.48;;;;;;;;;;4974538;28;20042;-49
2021/12/19 10:27:32;;;;;;;43.33;23.85;;;;;;;;;;4974401;28;20026;-47
2021/12/19 10:29:58;;;;;;;55.42;30.83;;;;;;;;;;4974127;28;20081;-48
2021/12/19 10:32:24;;;;;;;92.40;44.13;;;;;;;;;;4974128;28;20118;-47
2021/12/19 10:34:51;;;;;;;45.47;24.70;;;;;;;;;;4974370;28;20031;-47
2021/12/19 10:37:35;;;;;;;78.18;40.25;;;;;;;;;;4974079;28;20447;-49
2021/12/19 10:40:03;;;;;;;78.70;39.22;;;;;;;;;;4974309;28;20035;-48
2021/12/19 10:42:34;;;;;;;60.35;35.97;;;;;;;;;;4978473;28;20520;-47
2021/12/19 10:47:45;;;;;;;114.05;67.65;;;;;;;;;;5035273;28;20079;-49
2021/12/19 10:50:11;;;;;;;61.58;34.25;;;;;;;;;;5034735;28;20363;-49
2021/12/19 10:52:42;;;;;;;94.55;49.05;;;;;;;;;;5034721;28;20057;-48
2021/12/19 10:55:14;;;;;;;89.85;47.28;;;;;;;;;;5034872;28;20018;-49
2021/12/19 10:57:40;;;;;;;;;;;;;;;;;;5035004;28;20104;-47
2021/12/19 11:00:08;;;;;;;79.18;43.00;;;;;;;;;;5034634;28;19951;-47
2021/12/19 11:02:39;;;;;;;55.58;30.65;;;;;;;;;;5034661;28;20032;-52
2021/12/19 11:05:05;;;;;;;101.78;58.53;;;;;;;;;;5034519;28;20022;-50
2021/12/19 11:07:31;;;;;;;95.63;53.25;;;;;;;;;;5034347;28;20083;-48
2021/12/19 11:09:57;;;;;;;48.22;28.65;;;;;;;;;;5017603;28;20389;-50
2021/12/19 11:12:23;;;;;;;50.75;30.52;;;;;;;;;;5003453;28;20091;-50
2021/12/19 11:14:51;;;;;;;46.60;24.10;;;;;;;;;;5005014;28;20693;-51
2021/12/19 11:17:20;;;;;;;61.78;34.97;;;;;;;;;;5004205;28;20417;-48
2021/12/19 11:19:47;;;;;;;54.38;28.52;;;;;;;;;;5002985;28;20048;-49
2021/12/19 11:22:15;;;;;;;29.75;15.57;;;;;;;;;;5004764;28;20187;-48
2021/12/19 11:24:43;;;;;;;20.88;12.15;;;;;;;;;;5003970;28;20636;-51
2021/12/19 11:27:12;;;;;;;21.15;12.40;;;;;;;;;;5004366;28;20014;-51
2021/12/19 11:29:39;;;;;;;25.02;13.15;;;;;;;;;;5003869;28;20160;-49
2021/12/19 11:32:07;;;;;;;22.42;12.48;;;;;;;;;;5003331;28;20026;-49
2021/12/19 11:34:33;;;;;;;23.00;14.50;;;;;;;;;;5003591;28;20052;-48
2021/12/19 11:37:09;;;;;;;23.13;14.07;;;;;;;;;;5004773;28;20079;-52
2021/12/19 11:39:37;;;;;;;25.20;13.15;;;;;;;;;;5003774;28;20040;-50
2021/12/19 11:42:03;;;;;;;26.00;14.30;;;;;;;;;;5003622;28;20021;-49
2021/12/19 11:47:47;;;;;;;20.83;12.30;;;;;;;;;;5003628;28;20040;-48
2021/12/19 11:50:21;;;;;;;18.17;12.10;;;;;;;;;;5004439;28;20397;-51
2021/12/19 11:52:48;;;;;;;22.70;13.15;;;;;;;;;;5003856;28;20486;-49
2021/12/19 11:55:14;;;;;;;20.48;12.70;;;;;;;;;;5003665;28;20032;-50
2021/12/19 11:57:41;;;;;;;23.15;13.43;;;;;;;;;;5004035;28;20485;-49
2021/12/19 12:00:26;;;;;;;27.10;16.17;;;;;;;;;;5003668;28;20045;-50
2021/12/19 12:03:12;;;;;;;26.63;14.75;;;;;;;;;;5004024;28;20513;-51
2021/12/19 12:05:58;;;;;;;25.38;16.63;;;;;;;;;;5003759;28;20060;-48
2021/12/19 12:08:25;;;;;;;23.95;13.80;;;;;;;;;;4963020;28;20042;-51
2021/12/19 12:10:59;;;;;;;19.60;12.52;;;;;;;;;;4961239;28;21183;-51
2021/12/19 12:13:28;;;;;;;23.45;13.27;;;;;;;;;;4961430;28;20044;-49
2021/12/19 12:16:05;;;;;;;19.25;13.45;;;;;;;;;;4961129;28;20027;-51
2021/12/19 12:18:33;;;;;;;29.63;15.27;;;;;;;;;;4960895;28;20042;-48
2021/12/19 12:21:24;;;;;;;29.13;16.27;;;;;;;;;;4961544;28;20503;-53
2021/12/19 12:23:55;;;;;;;23.13;13.15;;;;;;;;;;4961104;28;20526;-49
2021/12/19 12:26:23;;;;;;;27.73;14.13;;;;;;;;;;4960971;28;21520;-51
2021/12/19 12:28:50;;;;;;;22.58;13.73;;;;;;;;;;4960963;28;20054;-47
2021/12/19 12:31:16;;;;;;;23.38;14.63;;;;;;;;;;4960660;28;20318;-49
2021/12/19 12:33:42;;;;;;;48.47;26.02;;;;;;;;;;4967475;28;20109;-48
2021/12/19 12:36:09;;;;;;;50.90;26.98;;;;;;;;;;4972450;28;20072;-48
2021/12/19 12:38:35;;;;;;;57.33;31.60;;;;;;;;;;4972173;28;20057;-48
2021/12/19 12:41:08;;;;;;;55.13;28.58;;;;;;;;;;4972631;28;20110;-47
2021/12/19 12:43:39;;;;;;;45.60;24.13;;;;;;;;;;4972223;28;20038;-48
2021/12/19 12:46:15;;;;;;;59.42;31.33;;;;;;;;;;5002477;28;20550;-47
2021/12/19 12:48:51;;;;;;;37.80;20.88;;;;;;;;;;5013509;28;20034;-47
2021/12/19 12:51:24;;;;;;;47.55;27.83;;;;;;;;;;5013850;28;20037;-48
2021/12/19 12:53:53;;;;;;;61.63;31.00;;;;;;;;;;5014360;28;20109;-47
2021/12/19 12:56:21;;;;;;;54.85;29.70;;;;;;;;;;5016000;28;20478;-48
2021/12/19 12:58:49;;;;;;;67.00;36.20;;;;;;;;;;5017391;28;20109;-48
2021/12/19 13:01:21;;;;;;;48.40;26.45;;;;;;;;;;5017238;28;20072;-48
2021/12/19 13:04:13;;;;;;;46.90;25.77;;;;;;;;;;5017294;28;20053;-48
2021/12/19 13:06:39;;;;;;;38.17;21.80;;;;;;;;;;5013137;28;20037;-48
2021/12/19 13:09:08;;;;;;;39.33;23.08;;;;;;;;;;5016995;28;20021;-48
2021/12/19 13:11:37;;;;;;;27.85;15.65;;;;;;;;;;5017236;28;20153;-48
2021/12/19 13:14:12;;;;;;;31.95;18.77;;;;;;;;;;5017129;28;20026;-47
2021/12/19 13:17:00;;;;;;;31.58;18.25;;;;;;;;;;5016794;28;20058;-47
2021/12/19 13:19:58;;;;;;;29.90;17.52;;;;;;;;;;5016935;28;20052;-47
2021/12/19 13:22:31;;;;;;;35.65;18.05;;;;;;;;;;4975839;28;20561;-47
2021/12/19 13:24:58;;;;;;;40.22;21.55;;;;;;;;;;4975508;28;20471;-47
2021/12/19 13:27:27;;;;;;;39.03;21.63;;;;;;;;;;4975691;28;20031;-47
2021/12/19 13:30:17;;;;;;;38.90;23.00;;;;;;;;;;4975514;28;20031;-47
2021/12/19 13:32:43;;;;;;;57.58;31.30;;;;;;;;;;4956340;28;20067;-47
2021/12/19 13:35:14;;;;;;;60.95;33.40;;;;;;;;;;4956229;29;20114;-49
2021/12/19 13:37:47;;;;;;;55.53;36.85;;;;;;;;;;4956136;29;20057;-48
2021/12/19 13:40:14;;;;;;;51.83;30.55;;;;;;;;;;4956189;29;20054;-48
2021/12/19 13:42:42;;;;;;;32.03;17.90;;;;;;;;;;4955986;29;20060;-47
2021/12/19 13:45:20;;;;;;;33.22;19.67;;;;;;;;;;4956061;28;20488;-47
2021/12/19 13:47:47;;;;;;;31.45;17.90;;;;;;;;;;4956269;29;20039;-49
2021/12/19 13:50:14;;;;;;;43.83;24.20;;;;;;;;;;4956012;29;20039;-46
2021/12/19 13:52:40;;;;;;;37.28;22.13;;;;;;;;;;4956040;28;20484;-48
2021/12/19 13:55:09;;;;;;;35.05;21.08;;;;;;;;;;4955806;28;20047;-47
2021/12/19 13:57:35;;;;;;;37.20;20.73;;;;;;;;;;4962557;28;20523;-47
2021/12/19 14:00:03;;;;;;;47.83;26.50;;;;;;;;;;4975325;28;20113;-48
2021/12/19 14:02:35;;;;;;;51.22;24.95;;;;;;;;;;4975051;28;20035;-49
2021/12/19 14:05:01;;;;;;;33.53;19.45;;;;;;;;;;4974292;28;20039;-47
2021/12/19 14:07:30;;;;;;;31.83;18.25;;;;;;;;;;4974928;28;20081;-49
2021/12/19 14:10:00;;;;;;;39.83;18.20;;;;;;;;;;4999629;28;20509;-47
2021/12/19 14:15:11;;;;;;;46.25;24.73;;;;;;;;;;5016203;28;20037;-48
2021/12/19 14:17:37;;;;;;;33.67;18.50;;;;;;;;;;5015974;28;20049;-47
2021/12/19 14:20:04;;;;;;;24.98;14.65;;;;;;;;;;5015777;28;20025;-48
2021/12/19 14:22:30;;;;;;;23.85;14.13;;;;;;;;;;5015820;28;20029;-47
2021/12/19 14:25:01;;;;;;;44.25;22.15;;;;;;;;;;5015936;28;20026;-47
2021/12/19 14:27:45;;;;;;;40.25;21.92;;;;;;;;;;5015842;28;20459;-47
2021/12/19 14:30:13;;;;;;;39.42;21.65;;;;;;;;;;5015628;28;20096;-47
2021/12/19 14:32:47;;;;;;;36.75;19.52;;;;;;;;;;5015524;28;20061;-48
2021/12/19 14:35:14;;;;;;;39.00;21.13;;;;;;;;;;5015688;28;20045;-48
2021/12/19 14:37:43;;;;;;;40.33;21.77;;;;;;;;;;5016018;28;20482;-47
2021/12/19 14:40:13;;;;;;;37.95;21.92;;;;;;;;;;5015478;28;20018;-47
2021/12/19 14:42:50;;;;;;;40.50;21.30;;;;;;;;;;5015602;28;20033;-47
2021/12/19 14:45:19;;;;;;;41.63;23.08;;;;;;;;;;5023421;28;20434;-48
2021/12/19 14:47:47;;;;;;;38.80;21.17;;;;;;;;;;5034525;28;20095;-47
2021/12/19 14:50:22;;;;;;;41.85;20.55;;;;;;;;;;5034620;28;20120;-47
2021/12/19 14:53:06;;;;;;;41.50;21.40;;;;;;;;;;5034332;28;20018;-49
2021/12/19 14:55:37;;;;;;;39.65;21.15;;;;;;;;;;5032060;28;20029;-46
2021/12/19 14:58:04;;;;;;;40.00;21.45;;;;;;;;;;5034266;28;20029;-48
2021/12/19 15:00:30;;;;;;;45.05;23.98;;;;;;;;;;5034275;28;20441;-48
2021/12/19 15:02:56;;;;;;;59.13;28.50;;;;;;;;;;5034350;28;20025;-48
2021/12/19 15:05:23;;;;;;;44.30;24.08;;;;;;;;;;5034200;28;20021;-48
2021/12/19 15:07:49;;;;;;;52.70;27.13;;;;;;;;;;5034251;28;20442;-48
2021/12/19 15:10:16;;;;;;;42.78;23.80;;;;;;;;;;5032316;28;20382;-47
2021/12/19 15:12:43;;;;;;;62.08;31.30;;;;;;;;;;5028175;28;20033;-47
2021/12/19 15:15:09;;;;;;;55.50;27.38;;;;;;;;;;5028572;28;20032;-47
2021/12/19 15:17:35;;;;;;;48.28;28.05;;;;;;;;;;5029873;28;20458;-48
2021/12/19 15:20:01;;;;;;;57.85;30.95;;;;;;;;;;5030318;28;20438;-48
2021/12/19 15:22:28;;;;;;;51.67;27.92;;;;;;;;;;5029690;28;20078;-48
2021/12/19 15:24:54;;;;;;;58.60;30.20;;;;;;;;;;5030679;28;20036;-56
2021/12/19 15:27:20;;;;;;;58.33;31.65;;;;;;;;;;5029793;28;20021;-47
2021/12/19 15:29:46;;;;;;;64.72;36.28;;;;;;;;;;5027887;28;20021;-47
2021/12/19 15:32:14;;;;;;;80.63;40.28;;;;;;;;;;5030064;28;20507;-47